Terminal Aerodrome Forecast
Issued by NWS

Home | Current Version | Previous Version | Text Only | Print | Product List | Glossary On
Versions: 1 2 3 4 5 6 7 8 9 10 11 12 13 14 15 16 17 18
618
FTUS43 KSGF 272015 AAA
TAFJLN
TAF AMD
KJLN 272015Z 2720/2818 19010KT P6SM VCTS SCT015 BKN040CB
      TEMPO 2720/2724 VRB25G35KT 2SM +TSRA BR OVC025CB
     FM280600 28005KT P6SM BKN025
     FM281200 33006KT P6SM BKN008
     FM281600 33007KT P6SM SCT020=

USA.gov is the U.S. government's official web portal to all federal, state and local government web resources and services.